createdAt,value
2019-02-07T00:02:28.623Z,80.75
2019-02-07T00:04:59.251Z,77.40
2019-02-07T00:07:29.953Z,75.60
2019-02-07T00:10:00.840Z,73.83
2019-02-07T00:12:31.737Z,79.32
2019-02-07T00:15:03.645Z,77.55
2019-02-07T00:17:34.310Z,89.07
2019-02-07T00:20:06.068Z,86.53
2019-02-07T00:22:39.408Z,82.65
2019-02-07T00:25:10.455Z,102.45
2019-02-07T00:27:40.887Z,106.95
2019-02-07T00:30:15.367Z,143.72
2019-02-07T00:32:47.929Z,128.00
2019-02-07T00:35:18.928Z,121.15
2019-02-07T00:37:49.915Z,94.95
2019-02-07T00:40:21.045Z,108.37
2019-02-07T00:42:52.020Z,106.45
2019-02-07T00:45:22.896Z,91.95
2019-02-07T00:47:54.039Z,92.25
2019-02-07T00:50:24.978Z,99.47
2019-02-07T00:52:55.936Z,95.28
2019-02-07T00:55:28.103Z,86.15
2019-02-07T00:57:59.034Z,95.70
2019-02-07T01:00:32.087Z,84.87
2019-02-07T01:03:03.029Z,80.60
2019-02-07T01:05:33.468Z,90.85
2019-02-07T01:08:04.298Z,98.27
2019-02-07T01:10:38.625Z,98.30
2019-02-07T01:13:09.215Z,106.60
2019-02-07T01:15:40.081Z,115.88
2019-02-07T01:18:13.167Z,99.77
2019-02-07T01:20:45.162Z,104.90
2019-02-07T01:23:16.094Z,93.10
2019-02-07T01:25:47.012Z,88.50
2019-02-07T01:28:18.176Z,104.20
2019-02-07T01:30:49.092Z,93.58
2019-02-07T01:33:20.436Z,98.78
2019-02-07T01:35:51.192Z,83.95
2019-02-07T01:38:22.178Z,89.72
2019-02-07T01:40:53.356Z,93.52
2019-02-07T01:43:24.211Z,89.17
2019-02-07T01:45:55.149Z,96.57
2019-02-07T01:48:26.228Z,90.87
2019-02-07T01:50:57.102Z,101.92
2019-02-07T01:53:28.267Z,82.35
2019-02-07T01:55:59.191Z,91.80
2019-02-07T01:58:30.957Z,103.30
2019-02-07T02:01:03.353Z,96.15
2019-02-07T02:03:33.832Z,94.80
2019-02-07T02:06:05.497Z,91.75
2019-02-07T02:08:37.318Z,99.80
2019-02-07T02:11:10.315Z,92.12
2019-02-07T02:13:43.273Z,88.70
2019-02-07T02:16:15.438Z,88.03
2019-02-07T02:18:46.400Z,91.92
2019-02-07T02:21:17.306Z,83.65
2019-02-07T02:23:48.490Z,89.35
2019-02-07T02:26:19.374Z,94.28
2019-02-07T02:28:50.335Z,98.75
2019-02-07T02:31:21.448Z,86.67
2019-02-07T02:33:53.488Z,99.20
2019-02-07T02:36:27.189Z,101.35
2019-02-07T02:38:57.581Z,101.60
2019-02-07T02:41:28.194Z,95.95
2019-02-07T02:43:58.621Z,103.72
2019-02-07T02:46:29.575Z,109.92
2019-02-07T02:49:00.496Z,94.95
2019-02-07T02:51:32.210Z,103.00
2019-02-07T02:54:03.740Z,103.50
2019-02-07T02:56:34.133Z,111.92
2019-02-07T02:59:04.540Z,103.27
2019-02-07T03:02:00.608Z,99.60
2019-02-07T03:04:50.842Z,86.95
2019-02-07T03:07:43.101Z,98.10
2019-02-07T03:10:44.347Z,99.25
2019-02-07T03:13:35.449Z,99.37
2019-02-07T03:16:28.915Z,80.97
2019-02-07T03:19:11.055Z,85.53
2019-02-07T03:22:00.571Z,92.15
2019-02-07T03:25:03.853Z,84.85
2019-02-07T03:27:59.336Z,80.50
2019-02-07T03:30:47.477Z,88.62
2019-02-07T03:33:42.532Z,93.07
2019-02-07T03:36:37.534Z,88.85
2019-02-07T03:39:40.337Z,86.17
2019-02-07T03:42:27.473Z,91.08
2019-02-07T03:45:12.048Z,100.78
2019-02-07T03:48:11.741Z,95.03
2019-02-07T03:51:05.493Z,94.65
2019-02-07T03:53:55.696Z,108.25
2019-02-07T03:56:45.436Z,108.72
2019-02-07T03:59:24.821Z,104.50
2019-02-07T04:02:12.987Z,99.42
2019-02-07T04:05:02.801Z,111.80
2019-02-07T04:07:52.743Z,112.30
2019-02-07T04:10:49.469Z,104.20
2019-02-07T04:13:39.685Z,108.92
2019-02-07T04:16:18.129Z,110.65
2019-02-07T04:19:20.615Z,110.50
2019-02-07T04:22:21.923Z,110.08
2019-02-07T04:25:09.664Z,118.65
2019-02-07T04:27:58.120Z,111.35
2019-02-07T04:30:55.463Z,115.05
2019-02-07T04:33:36.124Z,117.45
2019-02-07T04:36:23.815Z,111.22
2019-02-07T04:39:16.341Z,118.93
2019-02-07T04:42:05.978Z,117.50
2019-02-07T04:44:51.332Z,124.62
2019-02-07T04:47:43.865Z,113.42
2019-02-07T04:50:41.414Z,108.00
2019-02-07T04:53:33.885Z,104.07
2019-02-07T04:56:21.770Z,115.90
2019-02-07T04:59:17.730Z,120.45
2019-02-07T05:02:05.283Z,120.30
2019-02-07T05:04:58.681Z,110.75
2019-02-07T05:07:47.960Z,115.40
2019-02-07T05:10:39.958Z,116.10
2019-02-07T05:13:29.473Z,106.20
2019-02-07T05:16:13.656Z,113.95
2019-02-07T05:19:05.094Z,109.60
2019-02-07T05:22:02.040Z,109.83
2019-02-07T05:24:58.237Z,110.92
2019-02-07T05:27:40.469Z,100.30
2019-02-07T05:30:34.195Z,96.53
2019-02-07T05:33:34.310Z,103.50
2019-02-07T05:36:23.134Z,101.72
2019-02-07T05:39:28.389Z,102.17
2019-02-07T05:42:16.014Z,107.07
2019-02-07T05:45:09.311Z,97.95
2019-02-07T05:48:02.899Z,92.22
2019-02-07T05:51:01.706Z,93.00
2019-02-07T05:53:52.990Z,101.72
2019-02-07T05:56:42.715Z,90.22
2019-02-07T05:59:44.849Z,102.75
2019-02-07T06:02:36.740Z,98.52
2019-02-07T06:05:29.290Z,92.97
2019-02-07T06:08:23.779Z,94.30
2019-02-07T06:11:11.916Z,94.22
2019-02-07T06:14:00.962Z,96.12
2019-02-07T06:16:49.843Z,100.15
2019-02-07T06:19:40.205Z,98.97
2019-02-07T06:22:20.266Z,96.67
2019-02-07T06:25:03.129Z,100.67
2019-02-07T06:27:58.503Z,103.27
2019-02-07T06:30:48.966Z,96.55
2019-02-07T06:33:41.971Z,93.62
2019-02-07T06:36:28.502Z,101.62
2019-02-07T06:39:14.419Z,105.85
2019-02-07T06:42:02.681Z,96.37
2019-02-07T06:44:52.759Z,90.53
2019-02-07T06:47:50.130Z,105.32
2019-02-07T06:50:38.092Z,97.90
2019-02-07T06:53:43.437Z,85.92
2019-02-07T06:56:47.650Z,86.25
2019-02-07T06:59:31.902Z,87.85
2019-02-07T07:02:20.770Z,80.22
2019-02-07T07:05:11.982Z,80.38
2019-02-07T07:08:01.521Z,80.62
2019-02-07T07:10:55.101Z,82.88
2019-02-07T07:13:39.744Z,90.72
2019-02-07T07:16:31.542Z,86.80
2019-02-07T07:19:14.250Z,83.87
2019-02-07T07:22:18.385Z,88.10
2019-02-07T07:25:19.584Z,77.82
2019-02-07T07:28:14.472Z,82.88
2019-02-07T07:31:08.371Z,83.37
2019-02-07T07:34:01.562Z,74.95
2019-02-07T07:36:49.166Z,83.35
2019-02-07T07:39:37.934Z,82.70
2019-02-07T07:42:28.110Z,69.37
2019-02-07T07:45:17.623Z,73.37
2019-02-07T07:48:12.094Z,61.58
2019-02-07T07:51:02.619Z,69.00
2019-02-07T07:54:09.885Z,70.15
2019-02-07T07:57:05.737Z,61.83
2019-02-07T07:59:55.227Z,70.47
2019-02-07T08:03:02.790Z,66.73
2019-02-07T08:06:07.594Z,74.70
2019-02-07T08:08:50.186Z,66.50
2019-02-07T08:11:38.284Z,65.20
2019-02-07T08:14:21.689Z,60.83
2019-02-07T08:17:11.880Z,63.40
2019-02-07T08:20:22.867Z,61.68
2019-02-07T08:23:09.897Z,60.20
2019-02-07T08:25:58.380Z,60.10
2019-02-07T08:29:03.801Z,60.65
2019-02-07T08:31:53.098Z,58.40
2019-02-07T08:34:59.947Z,60.63
2019-02-07T08:37:58.151Z,61.37
2019-02-07T08:40:40.103Z,65.90
2019-02-07T08:43:39.123Z,60.90
2019-02-07T08:46:37.841Z,60.10
2019-02-07T08:49:27.234Z,56.90
2019-02-07T08:52:17.372Z,58.33
2019-02-07T08:55:13.865Z,58.37
2019-02-07T08:58:03.188Z,59.40
2019-02-07T09:00:48.891Z,58.50
2019-02-07T09:03:39.495Z,52.70
2019-02-07T09:06:30.136Z,59.70
2019-02-07T09:09:22.221Z,59.23
2019-02-07T09:12:12.003Z,56.50
2019-02-07T09:15:03.120Z,49.17
2019-02-07T09:17:56.150Z,55.63
2019-02-07T09:20:33.129Z,51.20
2019-02-07T09:23:38.805Z,47.23
2019-02-07T09:26:29.728Z,50.50
2019-02-07T09:29:18.946Z,49.63
2019-02-07T09:32:08.705Z,42.30
2019-02-07T09:35:11.265Z,39.27
2019-02-07T09:38:01.764Z,43.60
2019-02-07T09:40:52.235Z,45.90
2019-02-07T09:43:42.764Z,41.00
2019-02-07T09:46:33.128Z,47.17
2019-02-07T09:49:23.362Z,47.33
2019-02-07T09:52:13.051Z,42.43
2019-02-07T09:55:02.809Z,47.27
2019-02-07T09:57:50.694Z,39.53
2019-02-07T10:00:45.434Z,45.40
2019-02-07T10:03:33.629Z,42.47
2019-02-07T10:06:23.517Z,46.07
2019-02-07T10:09:21.042Z,44.73
2019-02-07T10:12:18.988Z,45.07
2019-02-07T10:15:09.375Z,39.20
2019-02-07T10:18:18.213Z,41.27
2019-02-07T10:21:06.173Z,46.43
2019-02-07T10:24:02.033Z,39.77
2019-02-07T10:26:50.877Z,45.77
2019-02-07T10:29:43.098Z,41.20
2019-02-07T10:32:38.403Z,42.97
2019-02-07T10:35:26.645Z,43.20
2019-02-07T10:38:15.589Z,42.13
2019-02-07T10:41:06.529Z,42.40
2019-02-07T10:44:11.694Z,48.03
2019-02-07T10:47:03.372Z,44.43
2019-02-07T10:49:59.267Z,46.90
2019-02-07T10:52:52.426Z,40.30
2019-02-07T10:56:00.637Z,43.13
2019-02-07T10:59:08.106Z,49.60
2019-02-07T11:02:05.101Z,47.00
2019-02-07T11:04:56.681Z,47.57
2019-02-07T11:07:48.503Z,44.27
2019-02-07T11:10:37.295Z,44.10
2019-02-07T11:13:30.347Z,42.37
2019-02-07T11:16:23.189Z,42.53
2019-02-07T11:19:21.486Z,38.97
2019-02-07T11:22:09.304Z,37.60
2019-02-07T11:24:58.240Z,40.90
2019-02-07T11:27:46.067Z,39.20
2019-02-07T11:30:40.266Z,39.90
2019-02-07T11:33:49.831Z,40.00
2019-02-07T11:36:42.068Z,37.60
2019-02-07T11:39:33.846Z,37.70
2019-02-07T11:42:23.284Z,44.10
2019-02-07T11:45:18.664Z,42.63
2019-02-07T11:48:12.655Z,40.47
2019-02-07T11:50:56.641Z,43.13
2019-02-07T11:53:47.573Z,41.17
2019-02-07T11:56:29.059Z,38.10
2019-02-07T11:59:20.859Z,35.63
2019-02-07T12:02:30.942Z,35.23
2019-02-07T12:05:20.494Z,35.83
2019-02-07T12:08:10.349Z,37.30
2019-02-07T12:11:17.622Z,30.33
2019-02-07T12:14:11.232Z,35.60
2019-02-07T12:17:03.096Z,28.23
2019-02-07T12:19:51.883Z,38.60
2019-02-07T12:22:47.609Z,38.13
2019-02-07T12:25:40.011Z,34.43
2019-02-07T12:28:26.222Z,31.93
2019-02-07T12:31:24.173Z,33.87
2019-02-07T12:34:05.367Z,32.50
2019-02-07T12:36:59.967Z,31.17
2019-02-07T12:40:08.816Z,30.40
2019-02-07T12:42:57.988Z,29.10
2019-02-07T12:45:58.956Z,36.77
2019-02-07T12:48:52.593Z,32.37
2019-02-07T12:51:43.255Z,41.30
2019-02-07T12:54:53.124Z,35.73
2019-02-07T12:57:36.603Z,34.93
2019-02-07T13:00:38.247Z,28.40
2019-02-07T13:03:36.045Z,30.40
2019-02-07T13:06:34.781Z,32.43
2019-02-07T13:09:27.878Z,32.97
2019-02-07T13:12:09.256Z,29.93
2019-02-07T13:15:00.478Z,29.27
2019-02-07T13:17:46.577Z,32.93
2019-02-07T13:20:34.748Z,31.93
2019-02-07T13:23:33.493Z,30.93
2019-02-07T13:26:25.968Z,31.87
2019-02-07T13:29:13.953Z,28.87
2019-02-07T13:31:54.104Z,30.37
2019-02-07T13:34:42.621Z,27.90
2019-02-07T13:37:45.260Z,30.60
2019-02-07T13:40:49.503Z,30.20
2019-02-07T13:43:44.709Z,24.67
2019-02-07T13:46:24.795Z,30.80
2019-02-07T13:49:20.068Z,34.17
2019-02-07T13:52:28.261Z,30.93
2019-02-07T13:55:17.497Z,25.83
2019-02-07T13:58:09.581Z,28.60
2019-02-07T14:00:53.870Z,27.83
2019-02-07T14:03:35.135Z,25.83
2019-02-07T14:06:32.443Z,27.23
2019-02-07T14:09:39.839Z,29.93
2019-02-07T14:12:29.623Z,26.60
2019-02-07T14:15:21.374Z,26.33
2019-02-07T14:18:30.229Z,29.37
2019-02-07T14:21:23.090Z,30.10
2019-02-07T14:24:15.195Z,28.10
2019-02-07T14:26:56.585Z,34.10
2019-02-07T14:29:47.546Z,30.23
2019-02-07T14:32:39.877Z,22.87
2019-02-07T14:35:29.943Z,25.03
2019-02-07T14:38:17.411Z,32.30
2019-02-07T14:41:12.542Z,26.40
2019-02-07T14:44:07.290Z,25.47
2019-02-07T14:46:48.732Z,24.83
2019-02-07T14:49:20.676Z,27.63
2019-02-07T14:51:51.805Z,28.03
2019-02-07T14:54:22.708Z,35.13
2019-02-07T14:56:53.707Z,25.77
2019-02-07T14:59:24.877Z,25.27
2019-02-07T15:01:55.709Z,24.73
2019-02-07T15:04:26.855Z,28.10
2019-02-07T15:06:57.903Z,23.20
2019-02-07T15:09:28.780Z,25.90
2019-02-07T15:11:59.848Z,25.17
2019-02-07T15:14:32.862Z,24.00
2019-02-07T15:17:03.248Z,26.00
2019-02-07T15:19:34.673Z,30.93
2019-02-07T15:22:05.984Z,25.03
2019-02-07T15:24:37.767Z,23.53
2019-02-07T15:27:10.937Z,29.10
2019-02-07T15:29:42.787Z,26.13
2019-02-07T15:32:15.783Z,25.03
2019-02-07T15:34:46.929Z,22.23
2019-02-07T15:37:17.910Z,26.07
2019-02-07T15:39:49.026Z,31.80
2019-02-07T15:42:20.106Z,24.73
2019-02-07T15:44:52.938Z,27.17
2019-02-07T15:47:23.865Z,23.33
2019-02-07T15:49:54.946Z,29.87
2019-02-07T15:52:26.406Z,24.23
2019-02-07T15:54:57.059Z,26.47
2019-02-07T15:57:27.929Z,30.57
2019-02-07T16:00:01.927Z,30.00
2019-02-07T16:02:45.473Z,26.90
2019-02-07T16:05:15.877Z,27.27
2019-02-07T16:07:46.665Z,27.73
2019-02-07T16:10:18.085Z,27.27
2019-02-07T16:12:48.499Z,29.23
2019-02-07T16:15:19.518Z,27.13
2019-02-07T16:17:49.982Z,28.53
2019-02-07T16:20:21.309Z,27.60
2019-02-07T16:22:52.192Z,37.40
2019-02-07T16:25:23.236Z,26.13
2019-02-07T16:27:53.947Z,23.63
2019-02-07T16:30:24.736Z,26.13
2019-02-07T16:32:55.185Z,26.57
2019-02-07T16:35:26.946Z,26.23
2019-02-07T16:37:57.786Z,21.73
2019-02-07T16:40:28.380Z,26.90
2019-02-07T16:42:59.490Z,26.27
2019-02-07T16:45:30.258Z,28.40
2019-02-07T16:48:01.333Z,27.67
2019-02-07T16:50:31.805Z,27.30
2019-02-07T16:53:02.280Z,23.50
2019-02-07T16:55:33.274Z,30.20
2019-02-07T16:58:05.206Z,25.47
2019-02-07T17:00:35.867Z,29.33
2019-02-07T17:03:07.086Z,24.53
2019-02-07T17:05:38.165Z,25.73
2019-02-07T17:08:08.810Z,33.37
2019-02-07T17:10:40.071Z,29.30
2019-02-07T17:13:11.084Z,27.47
2019-02-07T17:15:41.893Z,24.80
2019-02-07T17:18:12.360Z,22.90
2019-02-07T17:20:43.887Z,26.70
2019-02-07T17:23:14.444Z,28.87
2019-02-07T17:25:45.902Z,29.00
2019-02-07T17:28:16.838Z,25.13
2019-02-07T17:30:47.446Z,27.17
2019-02-07T17:33:18.487Z,27.80
2019-02-07T17:35:50.317Z,31.47
2019-02-07T17:38:22.386Z,30.10
2019-02-07T17:40:54.494Z,29.70
2019-02-07T17:43:25.452Z,23.70
2019-02-07T17:45:56.572Z,28.60
2019-02-07T17:48:27.448Z,28.50
2019-02-07T17:50:58.683Z,30.90
2019-02-07T17:53:29.777Z,29.00
2019-02-07T17:56:00.439Z,34.07
2019-02-07T17:58:30.898Z,30.90
2019-02-07T18:01:06.863Z,33.20
2019-02-07T18:03:38.626Z,30.03
2019-02-07T18:06:11.075Z,28.30
2019-02-07T18:08:43.659Z,29.80
2019-02-07T18:11:15.617Z,28.27
2019-02-07T18:13:47.824Z,30.60
2019-02-07T18:16:21.169Z,30.23
2019-02-07T18:18:53.619Z,36.87
2019-02-07T18:21:33.976Z,31.40
2019-02-07T18:23:58.752Z,30.77
2019-02-07T18:26:29.812Z,31.10
2019-02-07T18:29:00.558Z,33.57
2019-02-07T18:31:32.897Z,30.70
2019-02-07T18:34:05.884Z,33.43
2019-02-07T18:36:38.663Z,35.33
2019-02-07T18:39:11.011Z,37.60
2019-02-07T18:41:41.898Z,33.07
2019-02-07T18:44:12.759Z,35.67
2019-02-07T18:46:44.820Z,35.80
2019-02-07T18:49:17.724Z,32.37
2019-02-07T18:51:48.815Z,40.30
2019-02-07T18:54:19.895Z,32.40
2019-02-07T18:56:50.659Z,36.93
2019-02-07T18:59:26.682Z,30.77
2019-02-07T19:01:58.866Z,30.20
2019-02-07T19:04:29.901Z,30.13
2019-02-07T19:07:02.909Z,30.60
2019-02-07T19:09:33.810Z,36.27
2019-02-07T19:12:05.924Z,36.13
2019-02-07T19:14:38.781Z,32.50
2019-02-07T19:17:09.888Z,30.73
2019-02-07T19:19:41.977Z,37.83
2019-02-07T19:22:16.524Z,35.37
2019-02-07T19:24:46.889Z,40.47
2019-02-07T19:27:17.320Z,38.13
2019-02-07T19:29:48.413Z,37.83
2019-02-07T19:32:18.949Z,35.50
2019-02-07T19:34:50.203Z,43.00
2019-02-07T19:37:21.311Z,34.53
2019-02-07T19:39:52.197Z,37.30
2019-02-07T19:42:23.002Z,42.73
2019-02-07T19:44:54.165Z,38.17
2019-02-07T19:47:25.058Z,36.27
2019-02-07T19:49:56.125Z,39.13
2019-02-07T19:52:27.101Z,38.23
2019-02-07T19:54:58.080Z,48.13
2019-02-07T19:57:29.114Z,45.53
2019-02-07T20:00:00.207Z,40.73
2019-02-07T20:02:31.149Z,44.47
2019-02-07T20:05:02.071Z,42.90
2019-02-07T20:07:33.252Z,34.80
2019-02-07T20:10:05.389Z,40.67
2019-02-07T20:12:35.861Z,36.63
2019-02-07T20:15:13.817Z,44.20
2019-02-07T20:17:46.419Z,41.43
2019-02-07T20:20:17.493Z,38.57
2019-02-07T20:22:48.635Z,41.07
2019-02-07T20:25:19.143Z,39.70
2019-02-07T20:27:50.218Z,43.23
2019-02-07T20:30:26.416Z,41.10
2019-02-07T20:32:58.022Z,35.13
2019-02-07T20:35:29.131Z,40.80
2019-02-07T20:37:59.980Z,40.20
2019-02-07T20:40:31.249Z,41.13
2019-02-07T20:43:02.027Z,39.03
2019-02-07T20:45:32.922Z,41.80
2019-02-07T20:48:03.972Z,42.53
2019-02-07T20:50:36.362Z,40.50
2019-02-07T20:53:08.383Z,42.93
2019-02-07T20:55:39.518Z,54.60
2019-02-07T20:58:10.468Z,47.03
2019-02-07T21:00:41.250Z,58.57
2019-02-07T21:03:12.441Z,57.20
2019-02-07T21:05:43.330Z,45.50
2019-02-07T21:08:14.407Z,47.83
2019-02-07T21:10:45.389Z,42.77
2019-02-07T21:13:16.362Z,41.40
2019-02-07T21:15:47.493Z,37.50
2019-02-07T21:18:18.435Z,40.60
2019-02-07T21:20:49.390Z,38.77
2019-02-07T21:23:20.587Z,42.33
2019-02-07T21:25:53.599Z,40.17
2019-02-07T21:28:25.436Z,40.13
2019-02-07T21:30:56.429Z,40.80
2019-02-07T21:33:27.711Z,49.33
2019-02-07T21:35:58.479Z,53.17
2019-02-07T21:38:29.581Z,44.57
2019-02-07T21:41:02.523Z,48.03
2019-02-07T21:43:34.535Z,44.10
2019-02-07T21:46:05.617Z,61.33
2019-02-07T21:48:36.090Z,59.60
2019-02-07T21:51:06.710Z,55.37
2019-02-07T21:53:37.650Z,58.83
2019-02-07T21:56:09.476Z,60.37
2019-02-07T21:58:41.695Z,62.23
2019-02-07T22:01:13.644Z,60.77
2019-02-07T22:03:44.549Z,62.47
2019-02-07T22:06:15.768Z,64.93
2019-02-07T22:08:47.652Z,67.90
2019-02-07T22:11:20.664Z,65.07
2019-02-07T22:13:51.723Z,65.87
2019-02-07T22:16:22.653Z,62.63
2019-02-07T22:18:55.191Z,60.20
2019-02-07T22:21:27.601Z,64.13
2019-02-07T22:23:59.017Z,63.63
2019-02-07T22:26:29.810Z,62.63
2019-02-07T22:29:00.727Z,62.43
2019-02-07T22:31:31.790Z,72.97
2019-02-07T22:34:02.686Z,64.27
2019-02-07T22:36:33.872Z,55.97
2019-02-07T22:39:06.958Z,62.63
2019-02-07T22:41:38.769Z,57.73
2019-02-07T22:44:09.899Z,56.03
2019-02-07T22:46:41.927Z,49.60
2019-02-07T22:49:13.877Z,53.27
2019-02-07T22:51:44.949Z,51.70
2019-02-07T22:54:15.906Z,56.87
2019-02-07T22:56:47.272Z,51.73
2019-02-07T22:59:18.831Z,55.30
2019-02-07T23:01:56.791Z,47.40
2019-02-07T23:04:29.437Z,53.23
2019-02-07T23:06:59.929Z,58.43
2019-02-07T23:09:31.210Z,57.37
2019-02-07T23:12:02.028Z,50.53
2019-02-07T23:14:33.036Z,52.37
2019-02-07T23:17:03.846Z,55.00
2019-02-07T23:19:35.072Z,60.43
2019-02-07T23:22:06.428Z,58.37
2019-02-07T23:24:39.005Z,55.27
2019-02-07T23:27:11.088Z,53.13
2019-02-07T23:29:41.937Z,58.67
2019-02-07T23:32:12.950Z,52.30
2019-02-07T23:34:45.942Z,54.73
2019-02-07T23:37:17.077Z,54.93
2019-02-07T23:39:48.107Z,38.80
2019-02-07T23:42:19.036Z,55.73
2019-02-07T23:44:49.998Z,46.10
2019-02-07T23:47:21.969Z,56.47
2019-02-07T23:49:55.066Z,54.17
2019-02-07T23:52:26.069Z,63.93
2019-02-07T23:54:57.134Z,57.40
2019-02-07T23:57:28.104Z,53.67
